createdAt,value
2023-06-26T00:01:37.159Z,19.53
2023-06-26T00:04:09.074Z,19.51
2023-06-26T00:06:40.587Z,19.49
2023-06-26T00:09:12.594Z,19.46
2023-06-26T00:11:44.403Z,19.45
2023-06-26T00:14:15.890Z,19.40
2023-06-26T00:16:47.721Z,19.42
2023-06-26T00:19:19.216Z,19.43
2023-06-26T00:21:51.022Z,19.38
2023-06-26T00:24:22.509Z,19.37
2023-06-26T00:26:54.413Z,19.40
2023-06-26T00:29:25.892Z,19.44
2023-06-26T00:31:57.649Z,19.43
2023-06-26T00:34:30.520Z,19.32
2023-06-26T00:37:02.323Z,19.29
2023-06-26T00:39:33.820Z,19.29
2023-06-26T00:42:05.643Z,19.28
2023-06-26T00:44:39.247Z,19.18
2023-06-26T00:47:10.736Z,19.11
2023-06-26T00:49:42.403Z,19.03
2023-06-26T00:52:13.950Z,18.91
2023-06-26T00:54:45.810Z,18.92
2023-06-26T00:57:17.305Z,18.93
2023-06-26T00:59:49.118Z,18.86
2023-06-26T01:02:20.642Z,18.89
2023-06-26T01:04:52.497Z,18.94
2023-06-26T01:07:24.134Z,18.94
2023-06-26T01:09:56.030Z,18.93
2023-06-26T01:12:27.521Z,18.96
2023-06-26T01:14:59.333Z,18.95
2023-06-26T01:17:31.268Z,18.94
2023-06-26T01:20:02.781Z,18.98
2023-06-26T01:22:34.679Z,19.01
2023-06-26T01:25:06.174Z,18.92
2023-06-26T01:27:37.695Z,18.90
2023-06-26T01:30:09.196Z,18.89
2023-06-26T01:32:41.124Z,18.89
2023-06-26T01:35:12.644Z,18.90
2023-06-26T01:37:44.339Z,18.94
2023-06-26T01:40:15.822Z,18.93
2023-06-26T01:42:47.778Z,18.88
2023-06-26T01:45:19.635Z,18.79
2023-06-26T01:47:51.365Z,18.76
2023-06-26T01:50:23.367Z,18.74
2023-06-26T01:52:54.857Z,18.71
2023-06-26T01:55:26.364Z,18.69
2023-06-26T01:57:57.874Z,18.70
2023-06-26T02:00:29.386Z,18.62
2023-06-26T02:03:00.993Z,18.62
2023-06-26T02:05:32.929Z,18.56
2023-06-26T02:08:04.449Z,18.55
2023-06-26T02:10:36.371Z,18.60
2023-06-26T02:13:08.043Z,18.56
2023-06-26T02:15:39.857Z,18.58
2023-06-26T02:18:11.667Z,18.54
2023-06-26T02:20:43.160Z,18.54
2023-06-26T02:23:14.972Z,18.55
2023-06-26T02:25:46.486Z,18.50
2023-06-26T02:28:18.301Z,18.52
2023-06-26T02:30:49.913Z,18.54
2023-06-26T02:33:21.712Z,18.49
2023-06-26T02:35:53.201Z,18.51
2023-06-26T02:38:25.119Z,18.50
2023-06-26T02:40:56.607Z,18.50
2023-06-26T02:43:28.415Z,18.48
2023-06-26T02:46:00.186Z,18.52
2023-06-26T02:48:31.800Z,18.44
2023-06-26T02:51:03.674Z,18.39
2023-06-26T02:53:35.187Z,18.31
2023-06-26T02:56:07.137Z,18.12
2023-06-26T02:58:38.642Z,18.19
2023-06-26T03:01:10.658Z,18.20
2023-06-26T03:03:42.336Z,18.26
2023-06-26T03:06:14.034Z,18.28
2023-06-26T03:08:45.511Z,18.29
2023-06-26T03:11:16.998Z,18.29
2023-06-26T03:13:48.503Z,18.31
2023-06-26T03:16:20.350Z,18.31
2023-06-26T03:18:51.994Z,18.32
2023-06-26T03:21:23.497Z,18.37
2023-06-26T03:23:55.375Z,18.33
2023-06-26T03:26:26.863Z,18.43
2023-06-26T03:28:58.724Z,18.47
2023-06-26T03:31:30.304Z,18.59
2023-06-26T03:34:02.191Z,18.68
2023-06-26T03:36:33.684Z,18.79
2023-06-26T03:39:05.498Z,18.94
2023-06-26T03:41:37.027Z,19.05
2023-06-26T03:44:08.786Z,19.26
2023-06-26T03:46:40.765Z,19.47
2023-06-26T03:49:12.313Z,19.56
2023-06-26T03:51:44.390Z,19.70
2023-06-26T03:54:15.874Z,19.85
2023-06-26T03:56:47.773Z,19.98
2023-06-26T03:59:19.268Z,20.09
2023-06-26T04:01:53.762Z,20.23
2023-06-26T04:04:25.438Z,20.38
2023-06-26T04:06:57.036Z,20.39
2023-06-26T04:09:28.540Z,20.38
2023-06-26T04:12:00.359Z,20.42
2023-06-26T04:14:32.156Z,20.51
2023-06-26T04:17:03.987Z,20.56
2023-06-26T04:19:37.196Z,20.57
2023-06-26T04:22:08.969Z,20.62
2023-06-26T04:24:40.771Z,20.72
2023-06-26T04:27:12.273Z,20.79
2023-06-26T04:29:44.151Z,20.91
2023-06-26T04:32:15.668Z,20.95
2023-06-26T04:34:47.498Z,21.10
2023-06-26T04:37:18.991Z,21.14
2023-06-26T04:39:50.794Z,21.33
2023-06-26T04:42:22.717Z,21.49
2023-06-26T04:44:54.538Z,21.67
2023-06-26T04:47:26.244Z,21.68
2023-06-26T04:49:57.786Z,21.85
2023-06-26T04:52:29.594Z,21.73
2023-06-26T04:55:01.090Z,21.90
2023-06-26T04:57:32.923Z,22.37
2023-06-26T05:00:04.630Z,22.83
2023-06-26T05:02:36.493Z,23.21
2023-06-26T05:05:08.062Z,23.60
2023-06-26T05:07:39.733Z,23.27
2023-06-26T05:10:11.242Z,23.52
2023-06-26T05:12:42.906Z,23.37
2023-06-26T05:15:14.674Z,23.02
2023-06-26T05:17:46.558Z,22.85
2023-06-26T05:20:18.371Z,23.14
2023-06-26T05:22:49.870Z,22.93
2023-06-26T05:25:21.447Z,22.87
2023-06-26T05:27:53.116Z,22.80
2023-06-26T05:30:24.956Z,22.85
2023-06-26T05:32:56.646Z,22.90
2023-06-26T05:35:28.520Z,22.92
2023-06-26T05:38:00.043Z,22.98
2023-06-26T05:40:31.838Z,22.67
2023-06-26T05:43:03.353Z,22.43
2023-06-26T05:45:35.151Z,22.72
2023-06-26T05:48:07.070Z,23.26
2023-06-26T05:50:39.257Z,23.52
2023-06-26T05:53:11.068Z,23.83
2023-06-26T05:55:42.576Z,23.74
2023-06-26T05:58:14.249Z,23.67
2023-06-26T06:00:45.742Z,23.82
2023-06-26T06:03:17.278Z,23.98
2023-06-26T06:05:48.806Z,23.89
2023-06-26T06:08:20.632Z,24.17
2023-06-26T06:10:52.114Z,24.08
2023-06-26T06:13:23.919Z,24.03
2023-06-26T06:15:55.765Z,23.80
2023-06-26T06:18:27.592Z,24.17
2023-06-26T06:20:59.091Z,24.40
2023-06-26T06:23:30.598Z,24.33
2023-06-26T06:26:02.616Z,24.36
2023-06-26T06:28:34.102Z,24.23
2023-06-26T06:31:05.766Z,24.44
2023-06-26T06:33:37.297Z,24.51
2023-06-26T06:36:08.812Z,24.57
2023-06-26T06:38:40.298Z,24.74
2023-06-26T06:41:12.108Z,25.31
2023-06-26T06:43:43.810Z,24.96
2023-06-26T06:46:15.692Z,25.54
2023-06-26T06:48:47.479Z,25.62
2023-06-26T06:51:18.995Z,25.78
2023-06-26T06:53:50.696Z,26.15
2023-06-26T06:56:22.197Z,26.57
2023-06-26T06:58:54.034Z,26.58
2023-06-26T07:01:25.541Z,26.52
2023-06-26T07:03:57.541Z,26.80
2023-06-26T07:06:29.121Z,26.14
2023-06-26T07:09:00.921Z,26.03
2023-06-26T07:11:32.438Z,26.63
2023-06-26T07:14:04.301Z,27.08
2023-06-26T07:16:36.015Z,26.94
2023-06-26T07:19:07.576Z,26.84
2023-06-26T07:21:39.158Z,27.45
2023-06-26T07:24:10.712Z,27.84
2023-06-26T07:26:45.577Z,27.91
2023-06-26T07:29:18.332Z,27.91
2023-06-26T07:31:50.428Z,28.20
2023-06-26T07:34:21.943Z,28.48
2023-06-26T07:36:53.596Z,27.58
2023-06-26T07:39:25.086Z,27.45
2023-06-26T07:41:56.724Z,27.20
2023-06-26T07:44:28.356Z,27.37
2023-06-26T07:46:59.966Z,28.08
2023-06-26T07:49:31.515Z,28.04
2023-06-26T07:52:02.998Z,28.01
2023-06-26T07:54:34.618Z,28.13
2023-06-26T07:57:06.127Z,28.23
2023-06-26T07:59:37.841Z,28.64
2023-06-26T08:02:09.344Z,27.93
2023-06-26T08:04:41.224Z,28.03
2023-06-26T08:07:12.846Z,28.23
2023-06-26T08:09:44.509Z,28.44
2023-06-26T08:12:16.041Z,28.58
2023-06-26T08:14:47.748Z,28.28
2023-06-26T08:17:19.613Z,28.21
2023-06-26T08:19:51.155Z,28.88
2023-06-26T08:22:22.934Z,29.67
2023-06-26T08:24:54.417Z,29.76
2023-06-26T08:27:26.214Z,29.31
2023-06-26T08:29:57.720Z,29.07
2023-06-26T08:32:29.452Z,28.84
2023-06-26T08:35:00.950Z,28.81
2023-06-26T08:37:32.445Z,28.80
2023-06-26T08:40:04.138Z,28.92
2023-06-26T08:42:35.946Z,29.17
2023-06-26T08:45:07.473Z,29.84
2023-06-26T08:47:39.067Z,30.37
2023-06-26T08:50:10.979Z,30.17
2023-06-26T08:52:42.569Z,29.35
2023-06-26T08:55:14.277Z,29.64
2023-06-26T08:57:47.734Z,29.89
2023-06-26T09:00:20.011Z,29.80
2023-06-26T09:02:51.742Z,30.61
2023-06-26T09:05:23.396Z,30.50
2023-06-26T09:07:57.225Z,30.47
2023-06-26T09:10:30.291Z,30.96
2023-06-26T09:13:02.275Z,31.19
2023-06-26T09:15:33.797Z,31.26
2023-06-26T09:18:05.414Z,31.07
2023-06-26T09:20:37.282Z,31.32
2023-06-26T09:23:09.540Z,31.94
2023-06-26T09:25:42.526Z,31.73
2023-06-26T09:28:14.709Z,31.06
2023-06-26T09:30:46.208Z,31.93
2023-06-26T09:33:17.769Z,31.71
2023-06-26T09:35:49.291Z,32.12
2023-06-26T09:38:20.994Z,30.81
2023-06-26T09:40:52.545Z,30.80
2023-06-26T09:43:24.358Z,31.06
2023-06-26T09:45:56.060Z,30.99
2023-06-26T09:48:27.596Z,31.89
2023-06-26T09:51:12.116Z,31.28
2023-06-26T09:53:45.354Z,31.46
2023-06-26T09:56:17.145Z,32.05
2023-06-26T09:58:48.663Z,31.24
2023-06-26T10:01:20.593Z,31.45
2023-06-26T10:03:52.262Z,32.12
2023-06-26T10:06:24.197Z,31.93
2023-06-26T10:08:55.927Z,31.60
2023-06-26T10:11:27.753Z,31.70
2023-06-26T10:14:12.197Z,31.62
2023-06-26T10:16:47.800Z,31.87
2023-06-26T10:19:19.680Z,32.34
2023-06-26T10:21:51.163Z,33.22
2023-06-26T10:24:22.847Z,33.29
2023-06-26T10:26:54.398Z,33.48
2023-06-26T10:29:25.900Z,32.58
2023-06-26T10:31:57.771Z,32.56
2023-06-26T10:34:29.321Z,32.36
2023-06-26T10:37:01.185Z,32.33
2023-06-26T10:39:32.698Z,32.24
2023-06-26T10:42:05.554Z,31.83
2023-06-26T10:44:37.567Z,31.75
2023-06-26T10:47:09.484Z,32.42
2023-06-26T10:49:40.971Z,32.36
2023-06-26T10:52:12.813Z,31.66
2023-06-26T10:54:44.329Z,32.65
2023-06-26T10:57:16.229Z,32.65
2023-06-26T10:59:47.725Z,32.60
2023-06-26T11:02:19.562Z,33.23
2023-06-26T11:04:51.443Z,33.77
2023-06-26T11:07:23.006Z,32.91
2023-06-26T11:09:54.716Z,33.46
2023-06-26T11:12:26.208Z,33.50
2023-06-26T11:14:57.920Z,32.62
2023-06-26T11:17:29.506Z,32.85
2023-06-26T11:20:03.704Z,33.68
2023-06-26T11:22:36.181Z,33.84
2023-06-26T11:25:08.083Z,34.04
2023-06-26T11:27:39.583Z,32.63
2023-06-26T11:30:11.570Z,32.53
2023-06-26T11:32:43.124Z,32.79
2023-06-26T11:35:15.016Z,32.51
2023-06-26T11:37:46.881Z,32.80
2023-06-26T11:40:18.698Z,32.78
2023-06-26T11:42:50.645Z,32.96
2023-06-26T11:45:22.156Z,33.30
2023-06-26T11:47:54.032Z,33.27
2023-06-26T11:50:25.560Z,33.65
2023-06-26T11:52:57.434Z,33.45
2023-06-26T11:55:28.938Z,33.17
2023-06-26T11:58:00.793Z,34.04
2023-06-26T12:00:32.290Z,34.66
2023-06-26T12:03:04.131Z,34.10
2023-06-26T12:05:35.753Z,33.76
2023-06-26T12:08:10.589Z,33.63
2023-06-26T12:10:42.494Z,33.21
2023-06-26T12:13:14.355Z,33.13
2023-06-26T12:15:46.272Z,32.96
2023-06-26T12:18:17.749Z,31.81
2023-06-26T12:20:49.596Z,32.80
2023-06-26T12:23:21.080Z,32.75
2023-06-26T12:25:52.866Z,32.16
2023-06-26T12:28:24.359Z,31.08
2023-06-26T12:30:55.854Z,32.60
2023-06-26T12:33:27.344Z,33.31
2023-06-26T12:35:59.148Z,33.68
2023-06-26T12:38:31.022Z,34.75
2023-06-26T12:41:02.730Z,34.83
2023-06-26T12:43:34.665Z,34.69
2023-06-26T12:46:06.233Z,33.40
2023-06-26T12:48:38.049Z,33.15
2023-06-26T12:51:09.558Z,32.99
2023-06-26T12:53:41.064Z,33.71
2023-06-26T12:56:12.626Z,33.22
2023-06-26T12:58:44.143Z,33.60
2023-06-26T13:01:15.774Z,32.63
2023-06-26T13:03:47.910Z,32.55
2023-06-26T13:06:19.499Z,33.39
2023-06-26T13:08:51.353Z,33.81
2023-06-26T13:11:24.896Z,31.86
2023-06-26T13:14:09.397Z,33.23
2023-06-26T13:16:43.005Z,32.88
2023-06-26T13:19:14.524Z,32.13
2023-06-26T13:21:46.044Z,32.61
2023-06-26T13:24:17.643Z,32.11
2023-06-26T13:26:49.447Z,33.11
2023-06-26T13:29:20.936Z,33.62
2023-06-26T13:31:52.803Z,33.16
2023-06-26T13:34:24.368Z,33.70
2023-06-26T13:36:56.259Z,33.86
2023-06-26T13:39:28.149Z,33.42
2023-06-26T13:41:59.663Z,33.53
2023-06-26T13:44:38.908Z,33.31
2023-06-26T13:47:19.595Z,33.61
2023-06-26T13:49:51.532Z,35.27
2023-06-26T13:52:23.039Z,34.52
2023-06-26T13:54:54.834Z,35.73
2023-06-26T13:57:26.346Z,35.76
2023-06-26T13:59:58.178Z,33.50
2023-06-26T14:02:30.066Z,32.50
2023-06-26T14:05:01.662Z,31.83
2023-06-26T14:07:33.694Z,31.31
2023-06-26T14:10:05.234Z,30.82
2023-06-26T14:12:37.105Z,30.47
2023-06-26T14:15:08.571Z,30.39
2023-06-26T14:17:40.421Z,30.11
2023-06-26T14:20:11.931Z,29.96
2023-06-26T14:22:43.461Z,30.14
2023-06-26T14:25:14.974Z,27.85
2023-06-26T14:27:46.834Z,26.02
2023-06-26T14:30:18.356Z,24.02
2023-06-26T14:32:50.294Z,22.92
2023-06-26T14:35:22.185Z,22.22
2023-06-26T14:37:53.707Z,21.48
2023-06-26T14:40:25.243Z,21.02
2023-06-26T14:42:56.960Z,20.71
2023-06-26T14:45:29.158Z,20.55
2023-06-26T14:48:01.206Z,20.45
2023-06-26T14:50:32.926Z,20.44
2023-06-26T14:53:04.505Z,20.45
2023-06-26T14:55:36.311Z,20.33
2023-06-26T14:58:07.804Z,20.26
2023-06-26T15:00:39.842Z,20.27
2023-06-26T15:03:11.952Z,20.25
2023-06-26T15:05:43.946Z,20.41
2023-06-26T15:08:15.649Z,20.55
2023-06-26T15:10:47.146Z,20.58
2023-06-26T15:13:18.682Z,20.57
2023-06-26T15:15:50.177Z,20.41
2023-06-26T15:18:21.998Z,20.50
2023-06-26T15:20:53.516Z,20.54
2023-06-26T15:23:25.221Z,20.72
2023-06-26T15:25:56.729Z,20.62
2023-06-26T15:28:28.585Z,20.93
2023-06-26T15:31:00.096Z,20.91
2023-06-26T15:33:31.814Z,20.86
2023-06-26T15:36:03.709Z,20.74
2023-06-26T15:38:35.183Z,20.58
2023-06-26T15:41:06.923Z,20.48
2023-06-26T15:43:38.467Z,20.29
2023-06-26T15:46:10.341Z,20.28
2023-06-26T15:48:42.217Z,20.25
2023-06-26T15:51:14.150Z,20.30
2023-06-26T15:53:45.661Z,20.28
2023-06-26T15:56:18.383Z,20.42
2023-06-26T15:58:49.997Z,20.65
2023-06-26T16:01:22.090Z,20.82
2023-06-26T16:03:53.917Z,21.09
2023-06-26T16:06:25.417Z,21.28
2023-06-26T16:08:57.264Z,21.47
2023-06-26T16:11:29.741Z,21.52
2023-06-26T16:14:01.281Z,21.60
2023-06-26T16:16:32.878Z,22.40
2023-06-26T16:19:04.545Z,23.01
2023-06-26T16:21:36.080Z,23.36
2023-06-26T16:24:07.876Z,23.00
2023-06-26T16:26:39.374Z,22.69
2023-06-26T16:29:13.134Z,22.59
2023-06-26T16:31:45.084Z,22.39
2023-06-26T16:34:17.057Z,22.11
2023-06-26T16:36:50.779Z,21.95
2023-06-26T16:39:22.622Z,21.75
2023-06-26T16:41:54.449Z,21.67
2023-06-26T16:44:25.981Z,21.49
2023-06-26T16:46:57.923Z,21.18
2023-06-26T16:49:29.432Z,21.03
2023-06-26T16:52:01.252Z,21.05
2023-06-26T16:54:32.742Z,20.98
2023-06-26T16:57:05.493Z,21.13
2023-06-26T16:59:36.977Z,21.28
2023-06-26T17:02:08.489Z,21.33
2023-06-26T17:04:40.172Z,21.40
2023-06-26T17:07:11.701Z,21.35
2023-06-26T17:09:43.676Z,21.44
2023-06-26T17:12:15.202Z,21.61
2023-06-26T17:14:46.734Z,21.82
2023-06-26T17:17:18.219Z,22.04
2023-06-26T17:19:49.753Z,22.14
2023-06-26T17:22:21.238Z,22.36
2023-06-26T17:24:53.107Z,22.67
2023-06-26T17:27:24.626Z,22.72
2023-06-26T17:29:56.309Z,22.69
2023-06-26T17:32:28.231Z,22.57
2023-06-26T17:35:00.271Z,22.54
2023-06-26T17:37:32.077Z,22.23
2023-06-26T17:40:03.560Z,22.44
2023-06-26T17:42:35.272Z,22.36
2023-06-26T17:45:06.764Z,22.52
2023-06-26T17:47:38.726Z,22.32
2023-06-26T17:50:10.387Z,22.14
2023-06-26T17:52:44.670Z,22.13
2023-06-26T17:55:16.176Z,21.84
2023-06-26T17:57:47.853Z,22.11
2023-06-26T18:00:19.571Z,22.04
2023-06-26T18:02:51.531Z,21.85
2023-06-26T18:05:23.380Z,21.89
2023-06-26T18:08:04.093Z,21.79
2023-06-26T18:10:37.160Z,21.67
2023-06-26T18:13:08.716Z,21.71
2023-06-26T18:15:40.389Z,21.70
2023-06-26T18:18:12.022Z,21.62
2023-06-26T18:20:43.636Z,21.61
2023-06-26T18:23:15.173Z,21.59
2023-06-26T18:25:47.224Z,21.67
2023-06-26T18:28:18.721Z,21.49
2023-06-26T18:30:50.704Z,21.46
2023-06-26T18:33:22.263Z,21.47
2023-06-26T18:35:53.857Z,21.37
2023-06-26T18:38:25.750Z,21.26
2023-06-26T18:40:57.235Z,21.23
2023-06-26T18:43:28.743Z,21.14
2023-06-26T18:46:00.289Z,21.11
2023-06-26T18:48:31.829Z,21.12
2023-06-26T18:51:03.345Z,21.09
2023-06-26T18:53:35.336Z,21.02
2023-06-26T18:56:06.834Z,20.98
2023-06-26T18:58:38.370Z,20.95
2023-06-26T19:01:09.989Z,20.91
2023-06-26T19:03:41.616Z,20.92
2023-06-26T19:06:13.418Z,20.83
2023-06-26T19:08:44.932Z,20.79
2023-06-26T19:11:16.449Z,20.69
2023-06-26T19:13:47.959Z,20.62
2023-06-26T19:16:19.791Z,20.49
2023-06-26T19:18:51.302Z,20.48
2023-06-26T19:21:23.178Z,20.38
2023-06-26T19:23:54.830Z,20.31
2023-06-26T19:26:26.658Z,20.27
2023-06-26T19:28:58.512Z,20.25
2023-06-26T19:31:30.013Z,20.18
2023-06-26T19:34:01.928Z,20.12
2023-06-26T19:36:33.421Z,20.10
2023-06-26T19:39:05.360Z,19.79
2023-06-26T19:41:36.913Z,20.02
2023-06-26T19:44:08.577Z,20.01
2023-06-26T19:46:40.173Z,19.91
2023-06-26T19:49:11.803Z,19.93
2023-06-26T19:51:43.648Z,19.90
2023-06-26T19:54:15.146Z,19.88
2023-06-26T19:56:46.939Z,19.79
2023-06-26T19:59:18.470Z,19.74
2023-06-26T20:01:50.466Z,19.67
2023-06-26T20:04:23.697Z,19.60
2023-06-26T20:06:55.515Z,19.60
2023-06-26T20:09:27.001Z,19.54
2023-06-26T20:11:58.698Z,19.51
2023-06-26T20:14:30.215Z,19.50
2023-06-26T20:17:02.159Z,19.46
2023-06-26T20:19:33.688Z,19.45
2023-06-26T20:22:05.241Z,19.45
2023-06-26T20:24:36.766Z,19.42
2023-06-26T20:27:08.554Z,19.44
2023-06-26T20:29:40.040Z,19.39
2023-06-26T20:32:11.852Z,19.38
2023-06-26T20:34:43.385Z,19.40
2023-06-26T20:37:15.228Z,19.36
2023-06-26T20:39:46.713Z,19.28
2023-06-26T20:42:18.532Z,19.30
2023-06-26T20:44:50.026Z,19.27
2023-06-26T20:47:21.752Z,19.29
2023-06-26T20:49:53.292Z,19.26
2023-06-26T20:52:25.245Z,19.24
2023-06-26T20:54:56.741Z,19.19
2023-06-26T20:57:28.781Z,19.12
2023-06-26T21:00:00.286Z,19.12
2023-06-26T21:02:31.892Z,19.11
2023-06-26T21:05:03.509Z,19.11
2023-06-26T21:07:35.582Z,19.07
2023-06-26T21:10:09.414Z,19.06
2023-06-26T21:12:41.587Z,18.98
2023-06-26T21:15:13.118Z,18.93
2023-06-26T21:17:44.899Z,18.99
2023-06-26T21:20:19.413Z,18.96
2023-06-26T21:22:51.135Z,18.93
2023-06-26T21:25:22.638Z,18.92
2023-06-26T21:27:54.411Z,18.92
2023-06-26T21:30:26.136Z,18.93
2023-06-26T21:32:58.007Z,18.91
2023-06-26T21:35:42.056Z,18.62
2023-06-26T21:38:15.185Z,18.81
2023-06-26T21:40:46.701Z,18.75
2023-06-26T21:43:18.418Z,18.69
2023-06-26T21:45:49.936Z,18.72
2023-06-26T21:48:21.709Z,18.63
2023-06-26T21:50:53.222Z,18.57
2023-06-26T21:53:24.952Z,18.60
2023-06-26T21:55:56.431Z,18.54
2023-06-26T21:58:28.192Z,18.51
2023-06-26T22:00:59.668Z,18.48
2023-06-26T22:03:31.443Z,18.42
2023-06-26T22:06:02.914Z,18.38
2023-06-26T22:08:34.887Z,18.30
2023-06-26T22:11:06.385Z,18.30
2023-06-26T22:13:38.277Z,18.33
2023-06-26T22:16:09.778Z,18.30
2023-06-26T22:18:41.567Z,18.21
2023-06-26T22:21:13.105Z,18.23
2023-06-26T22:23:44.932Z,18.20
2023-06-26T22:26:16.447Z,18.21
2023-06-26T22:28:48.274Z,18.16
2023-06-26T22:31:19.877Z,18.10
2023-06-26T22:33:51.631Z,18.09
2023-06-26T22:36:23.130Z,18.09
2023-06-26T22:38:55.069Z,18.00
2023-06-26T22:41:26.551Z,17.99
2023-06-26T22:43:58.391Z,17.96
2023-06-26T22:46:29.878Z,17.96
2023-06-26T22:49:01.623Z,17.90
2023-06-26T22:51:33.117Z,17.85
2023-06-26T22:54:04.792Z,17.79
2023-06-26T22:56:49.905Z,17.75
2023-06-26T22:59:26.076Z,17.66
2023-06-26T23:01:57.566Z,17.63
2023-06-26T23:04:29.459Z,17.56
2023-06-26T23:07:01.058Z,17.57
2023-06-26T23:09:33.003Z,17.53
2023-06-26T23:12:04.479Z,17.45
2023-06-26T23:14:36.665Z,17.46
2023-06-26T23:17:08.171Z,17.42
2023-06-26T23:19:40.004Z,17.38
2023-06-26T23:22:11.518Z,17.33
2023-06-26T23:24:43.205Z,17.26
2023-06-26T23:27:14.722Z,17.21
2023-06-26T23:29:46.627Z,17.16
2023-06-26T23:32:18.117Z,17.14
2023-06-26T23:34:49.886Z,17.09
2023-06-26T23:37:21.369Z,17.04
2023-06-26T23:39:53.183Z,16.97
2023-06-26T23:42:24.685Z,16.91
2023-06-26T23:44:56.460Z,16.83
2023-06-26T23:47:27.981Z,16.81
2023-06-26T23:50:00.053Z,16.77
2023-06-26T23:52:31.554Z,16.75
2023-06-26T23:55:03.365Z,16.70
2023-06-26T23:57:34.852Z,16.70
